createdAt,value
2022-12-13T00:01:48.021Z,-6.80
2022-12-13T00:04:16.400Z,-6.70
2022-12-13T00:06:44.756Z,-6.80
2022-12-13T00:09:15.017Z,-6.80
2022-12-13T00:11:43.056Z,-6.90
2022-12-13T00:14:14.839Z,-6.80
2022-12-13T00:16:47.199Z,-7.00
2022-12-13T00:19:16.108Z,-7.00
2022-12-13T00:21:44.245Z,-7.00
2022-12-13T00:24:12.341Z,-7.00
2022-12-13T00:26:42.104Z,-6.90
2022-12-13T00:29:12.126Z,-6.90
2022-12-13T00:34:29.776Z,-6.90
2022-12-13T00:36:59.445Z,-7.10
2022-12-13T00:39:28.442Z,-7.20
2022-12-13T00:41:58.206Z,-7.20
2022-12-13T00:44:26.231Z,-7.30
2022-12-13T00:46:55.014Z,-7.30
2022-12-13T00:49:23.493Z,-7.30
2022-12-13T00:51:51.550Z,-7.40
2022-12-13T00:54:19.776Z,-7.30
2022-12-13T00:56:47.753Z,-7.20
2022-12-13T00:59:17.782Z,-7.10
2022-12-13T01:01:46.238Z,-7.10
2022-12-13T01:04:14.953Z,-7.00
2022-12-13T01:06:45.568Z,-7.00
2022-12-13T01:09:19.021Z,-7.00
2022-12-13T01:11:48.064Z,-7.00
2022-12-13T01:14:18.445Z,-7.00
2022-12-13T01:16:46.974Z,-7.00
2022-12-13T01:19:15.697Z,-6.90
2022-12-13T01:21:43.785Z,-7.00
2022-12-13T01:24:12.580Z,-7.10
2022-12-13T01:26:40.685Z,-7.10
2022-12-13T01:29:11.298Z,-7.20
2022-12-13T01:31:42.182Z,-7.30
2022-12-13T01:34:11.378Z,-7.30
2022-12-13T01:36:40.214Z,-7.30
2022-12-13T01:39:15.051Z,-7.20
2022-12-13T01:41:45.749Z,-7.20
2022-12-13T01:44:48.219Z,-7.30
2022-12-13T01:47:20.857Z,-7.40
2022-12-13T01:49:49.366Z,-7.30
2022-12-13T01:52:18.646Z,-7.30
2022-12-13T01:54:52.649Z,-7.30
2022-12-13T01:57:24.458Z,-7.40
2022-12-13T01:59:54.244Z,-7.40
2022-12-13T02:02:24.682Z,-7.40
2022-12-13T02:04:58.107Z,-7.40
2022-12-13T02:07:29.451Z,-7.40
2022-12-13T02:10:00.958Z,-7.40
2022-12-13T02:12:31.633Z,-7.40
2022-12-13T02:15:02.009Z,-7.40
2022-12-13T02:17:46.808Z,-7.40
2022-12-13T02:20:58.466Z,-7.40
2022-12-13T02:24:09.104Z,-7.40
2022-12-13T02:27:00.263Z,-7.40
2022-12-13T02:30:10.024Z,-7.40
2022-12-13T02:32:49.919Z,-7.40
2022-12-13T02:35:24.823Z,-7.40
2022-12-13T02:38:03.605Z,-7.40
2022-12-13T02:40:35.749Z,-7.30
2022-12-13T02:43:08.268Z,-7.30
2022-12-13T02:45:40.436Z,-7.30
2022-12-13T02:48:13.110Z,-7.30
2022-12-13T02:50:42.735Z,-7.40
2022-12-13T02:53:12.697Z,-7.30
2022-12-13T02:55:41.221Z,-7.30
2022-12-13T02:58:13.016Z,-7.30
2022-12-13T03:00:52.757Z,-7.30
2022-12-13T03:03:32.325Z,-7.30
2022-12-13T03:06:34.352Z,-7.30
2022-12-13T03:09:20.529Z,-7.30
2022-12-13T03:12:17.759Z,-7.30
2022-12-13T03:14:54.553Z,-7.30
2022-12-13T03:17:26.793Z,-7.20
2022-12-13T03:19:56.392Z,-7.20
2022-12-13T03:22:24.383Z,-7.10
2022-12-13T03:24:53.818Z,-6.90
2022-12-13T03:27:22.032Z,-6.90
2022-12-13T03:29:50.599Z,-6.90
2022-12-13T03:32:18.639Z,-6.80
2022-12-13T03:34:50.840Z,-6.70
2022-12-13T03:37:30.208Z,-6.70
2022-12-13T03:39:59.288Z,-6.70
2022-12-13T03:42:27.428Z,-6.60
2022-12-13T03:44:55.485Z,-6.70
2022-12-13T03:47:23.485Z,-6.60
2022-12-13T03:49:54.038Z,-6.60
2022-12-13T03:52:22.675Z,-6.60
2022-12-13T03:54:52.833Z,-6.50
2022-12-13T03:57:20.919Z,-6.60
2022-12-13T03:59:49.634Z,-6.50
2022-12-13T04:02:31.515Z,-6.50
2022-12-13T04:05:00.698Z,-6.50
2022-12-13T04:07:33.977Z,-6.60
2022-12-13T04:10:04.436Z,-6.80
2022-12-13T04:13:10.604Z,-6.70
2022-12-13T04:15:38.621Z,-6.70
2022-12-13T04:18:07.844Z,-6.50
2022-12-13T04:20:36.187Z,-6.50
2022-12-13T04:23:10.437Z,-6.50
2022-12-13T04:25:41.821Z,-6.50
2022-12-13T04:28:10.532Z,-6.50
2022-12-13T04:30:39.455Z,-6.50
2022-12-13T04:33:07.739Z,-6.50
2022-12-13T04:35:35.755Z,-6.50
2022-12-13T04:38:04.129Z,-6.50
2022-12-13T04:40:32.151Z,-6.40
2022-12-13T04:43:02.073Z,-6.40
2022-12-13T04:45:33.210Z,-6.40
2022-12-13T04:48:01.258Z,-6.30
2022-12-13T04:50:29.456Z,-6.30
2022-12-13T04:52:57.513Z,-6.20
2022-12-13T04:55:25.527Z,-6.20
2022-12-13T04:57:53.590Z,-6.20
2022-12-13T05:00:23.328Z,-6.10
2022-12-13T05:02:51.658Z,-6.20
2022-12-13T05:05:19.845Z,-6.20
2022-12-13T05:07:50.120Z,-6.20
2022-12-13T05:10:34.058Z,-6.20
2022-12-13T05:13:07.853Z,-6.10
2022-12-13T05:15:37.183Z,-6.10
2022-12-13T05:18:10.722Z,-6.00
2022-12-13T05:20:40.235Z,-6.00
2022-12-13T05:23:08.811Z,-6.10
2022-12-13T05:25:37.491Z,-6.10
2022-12-13T05:28:08.855Z,-6.00
2022-12-13T05:30:57.349Z,-6.00
2022-12-13T05:33:25.942Z,-6.00
2022-12-13T05:36:00.486Z,-5.90
2022-12-13T05:38:31.510Z,-5.90
2022-12-13T05:41:00.013Z,-5.90
2022-12-13T05:43:42.319Z,-5.90
2022-12-13T05:46:13.617Z,-5.90
2022-12-13T05:48:42.134Z,-5.80
2022-12-13T05:51:12.022Z,-5.70
2022-12-13T05:53:41.188Z,-5.70
2022-12-13T05:56:10.583Z,-5.80
2022-12-13T05:58:39.898Z,-5.70
2022-12-13T06:01:09.634Z,-5.80
2022-12-13T06:03:39.571Z,-5.80
2022-12-13T06:06:10.127Z,-5.80
2022-12-13T06:08:38.548Z,-5.70
2022-12-13T06:11:11.490Z,-5.60
2022-12-13T06:13:43.062Z,-5.50
2022-12-13T06:16:22.986Z,-5.60
2022-12-13T06:19:01.245Z,-5.60
2022-12-13T06:21:39.136Z,-5.50
2022-12-13T06:24:15.162Z,-5.50
2022-12-13T06:26:45.471Z,-5.50
2022-12-13T06:29:24.302Z,-5.50
2022-12-13T06:32:01.992Z,-5.50
2022-12-13T06:34:34.799Z,-5.40
2022-12-13T06:37:06.951Z,-5.40
2022-12-13T06:39:35.798Z,-5.40
2022-12-13T06:42:06.030Z,-5.40
2022-12-13T06:44:35.012Z,-5.40
2022-12-13T06:47:11.090Z,-5.40
2022-12-13T06:49:44.597Z,-5.40
2022-12-13T06:52:15.606Z,-5.40
2022-12-13T06:54:44.227Z,-5.50
2022-12-13T06:57:14.752Z,-5.60
2022-12-13T06:59:43.623Z,-5.60
2022-12-13T07:02:24.242Z,-5.60
2022-12-13T07:04:56.385Z,-5.70
2022-12-13T07:07:26.113Z,-5.70
2022-12-13T07:09:55.115Z,-5.70
2022-12-13T07:12:23.292Z,-5.70
2022-12-13T07:14:51.464Z,-5.70
2022-12-13T07:17:33.418Z,-5.70
2022-12-13T07:20:07.652Z,-5.70
2022-12-13T07:22:41.583Z,-5.70
2022-12-13T07:25:27.742Z,-5.80
2022-12-13T07:28:02.139Z,-5.80
2022-12-13T07:30:32.358Z,-5.80
2022-12-13T07:33:01.305Z,-5.70
2022-12-13T07:35:31.094Z,-5.60
2022-12-13T07:38:06.657Z,-5.50
2022-12-13T07:40:35.173Z,-5.60
2022-12-13T07:43:04.569Z,-5.50
2022-12-13T07:45:33.260Z,-5.50
2022-12-13T07:48:05.641Z,-5.50
2022-12-13T07:50:36.928Z,-5.40
2022-12-13T07:53:06.938Z,-5.40
2022-12-13T07:55:35.426Z,-5.40
2022-12-13T07:58:07.879Z,-5.40
2022-12-13T08:00:37.008Z,-5.50
2022-12-13T08:03:05.748Z,-5.50
2022-12-13T08:05:39.425Z,-5.40
2022-12-13T08:08:10.054Z,-5.40
2022-12-13T08:10:39.966Z,-5.40
2022-12-13T08:13:07.918Z,-5.40
2022-12-13T08:15:37.057Z,-5.30
2022-12-13T08:18:05.267Z,-5.30
2022-12-13T08:20:35.839Z,-5.10
2022-12-13T08:23:05.202Z,-5.10
2022-12-13T08:25:33.444Z,-5.10
2022-12-13T08:28:02.872Z,-5.00
2022-12-13T08:30:33.607Z,-5.00
2022-12-13T08:33:05.256Z,-4.90
2022-12-13T08:35:35.171Z,-4.80
2022-12-13T08:38:05.282Z,-4.70
2022-12-13T08:40:34.901Z,-4.70
2022-12-13T08:43:03.586Z,-4.70
2022-12-13T08:45:34.378Z,-4.70
2022-12-13T08:48:03.655Z,-4.70
2022-12-13T08:50:32.121Z,-4.60
2022-12-13T08:53:00.956Z,-4.60
2022-12-13T08:55:31.432Z,-4.50
2022-12-13T08:58:05.139Z,-4.50
2022-12-13T09:00:36.063Z,-4.50
2022-12-13T09:03:05.242Z,-4.40
2022-12-13T09:05:35.163Z,-4.40
2022-12-13T09:08:23.357Z,-4.30
2022-12-13T09:11:11.272Z,-4.30
2022-12-13T09:13:51.033Z,-4.20
2022-12-13T09:16:24.266Z,-4.10
2022-12-13T09:18:55.110Z,-4.10
2022-12-13T09:21:31.081Z,-4.10
2022-12-13T09:24:01.343Z,-4.00
2022-12-13T09:26:37.680Z,-3.90
2022-12-13T09:29:10.942Z,-3.80
2022-12-13T09:31:40.901Z,-3.90
2022-12-13T09:34:10.561Z,-3.90
2022-12-13T09:36:38.928Z,-3.80
2022-12-13T09:39:07.792Z,-3.90
2022-12-13T09:41:41.646Z,-4.00
2022-12-13T09:44:32.042Z,-4.00
2022-12-13T09:47:13.901Z,-3.90
2022-12-13T09:49:52.333Z,-3.70
2022-12-13T09:52:23.474Z,-3.50
2022-12-13T09:54:53.713Z,-3.60
2022-12-13T09:57:32.488Z,-3.40
2022-12-13T10:00:03.308Z,-3.40
2022-12-13T10:02:45.144Z,-3.30
2022-12-13T10:05:21.778Z,-3.20
2022-12-13T10:07:53.527Z,-3.20
2022-12-13T10:10:21.907Z,-3.10
2022-12-13T10:12:56.299Z,-3.20
2022-12-13T10:15:25.389Z,-3.00
2022-12-13T10:17:55.373Z,-3.00
2022-12-13T10:20:26.272Z,-3.00
2022-12-13T10:23:31.197Z,-3.10
2022-12-13T10:25:52.021Z,-3.10
2022-12-13T10:28:27.476Z,-3.10
2022-12-13T10:30:57.220Z,-3.10
2022-12-13T10:33:29.829Z,-3.10
2022-12-13T10:36:10.362Z,-3.00
2022-12-13T10:38:41.346Z,-3.20
2022-12-13T10:41:34.244Z,-3.10
2022-12-13T10:44:17.328Z,-3.00
2022-12-13T10:46:54.741Z,-2.90
2022-12-13T10:49:25.190Z,-2.90
2022-12-13T10:51:54.777Z,-2.90
2022-12-13T10:54:28.650Z,-2.90
2022-12-13T10:57:00.272Z,-3.00
2022-12-13T10:59:35.906Z,-3.10
2022-12-13T11:02:29.041Z,-2.90
2022-12-13T11:04:58.806Z,-2.90
2022-12-13T11:07:30.439Z,-2.90
2022-12-13T11:10:04.992Z,-3.00
2022-12-13T11:12:34.493Z,-3.00
2022-12-13T11:15:08.413Z,-2.80
2022-12-13T11:17:46.549Z,-2.80
2022-12-13T11:20:20.971Z,-2.80
2022-12-13T11:22:49.359Z,-2.70
2022-12-13T11:25:24.139Z,-2.60
2022-12-13T11:28:27.056Z,-2.70
2022-12-13T11:31:07.085Z,-2.70
2022-12-13T11:33:47.763Z,-2.60
2022-12-13T11:36:25.379Z,-2.60
2022-12-13T11:39:07.971Z,-2.60
2022-12-13T11:41:40.505Z,-2.50
2022-12-13T11:44:15.081Z,-2.50
2022-12-13T11:46:49.441Z,-2.50
2022-12-13T11:49:19.896Z,-2.40
2022-12-13T11:51:51.698Z,-2.30
2022-12-13T11:54:29.756Z,-2.30
2022-12-13T11:57:01.070Z,-2.40
2022-12-13T11:59:40.318Z,-2.40
2022-12-13T12:02:17.883Z,-2.50
2022-12-13T12:04:54.931Z,-2.60
2022-12-13T12:07:34.233Z,-2.50
2022-12-13T12:10:17.125Z,-2.60
2022-12-13T12:12:50.578Z,-2.60
2022-12-13T12:15:26.604Z,-2.60
2022-12-13T12:17:56.818Z,-2.60
2022-12-13T12:20:36.065Z,-2.50
2022-12-13T12:23:12.313Z,-2.60
2022-12-13T12:25:48.684Z,-2.50
2022-12-13T12:28:28.503Z,-2.60
2022-12-13T12:31:03.333Z,-2.40
2022-12-13T12:33:42.078Z,-2.40
2022-12-13T12:36:22.980Z,-2.40
2022-12-13T12:39:26.855Z,-2.50
2022-12-13T12:42:22.932Z,-2.40
2022-12-13T12:45:10.463Z,-2.40
2022-12-13T12:48:42.687Z,-2.40
2022-12-13T12:50:47.763Z,-2.40
2022-12-13T12:53:29.898Z,-2.30
2022-12-13T12:56:10.355Z,-2.40
2022-12-13T12:58:44.895Z,-2.40
2022-12-13T13:01:26.592Z,-2.50
2022-12-13T13:04:01.513Z,-2.50
2022-12-13T13:06:36.205Z,-2.50
2022-12-13T13:09:07.938Z,-2.50
2022-12-13T13:11:43.005Z,-2.50
2022-12-13T13:14:28.574Z,-2.50
2022-12-13T13:16:56.960Z,-2.60
2022-12-13T13:19:46.528Z,-2.50
2022-12-13T13:22:32.552Z,-2.60
2022-12-13T13:25:26.048Z,-2.50
2022-12-13T13:28:03.167Z,-2.50
2022-12-13T13:30:31.583Z,-2.50
2022-12-13T13:33:00.435Z,-2.60
2022-12-13T13:35:56.083Z,-2.70
2022-12-13T13:38:49.945Z,-2.70
2022-12-13T13:41:55.148Z,-2.80
2022-12-13T13:45:01.388Z,-2.70
2022-12-13T13:47:42.856Z,-2.70
2022-12-13T13:50:48.166Z,-2.80
2022-12-13T13:53:50.029Z,-2.80
2022-12-13T13:56:36.443Z,-2.90
2022-12-13T13:59:38.671Z,-3.00
2022-12-13T14:02:36.453Z,-3.00
2022-12-13T14:05:50.623Z,-3.00
2022-12-13T14:08:32.360Z,-3.00
2022-12-13T14:11:19.673Z,-3.10
2022-12-13T14:14:38.703Z,-3.10
2022-12-13T14:17:38.489Z,-3.10
2022-12-13T14:20:39.948Z,-3.10
2022-12-13T14:23:15.037Z,-3.10
2022-12-13T14:26:16.640Z,-3.10
2022-12-13T14:28:49.862Z,-3.10
2022-12-13T14:31:23.423Z,-3.10
2022-12-13T14:33:53.311Z,-3.20
2022-12-13T14:36:29.331Z,-3.30
2022-12-13T14:39:02.398Z,-3.30
2022-12-13T14:41:30.667Z,-3.30
2022-12-13T14:44:16.917Z,-3.40
2022-12-13T14:46:53.080Z,-3.30
2022-12-13T14:49:21.692Z,-3.40
2022-12-13T14:52:00.284Z,-3.50
2022-12-13T14:54:38.869Z,-3.50
2022-12-13T14:57:07.193Z,-3.60
2022-12-13T14:59:35.131Z,-3.70
2022-12-13T15:02:16.474Z,-3.70
2022-12-13T15:04:44.890Z,-3.80
2022-12-13T15:07:18.868Z,-3.80
2022-12-13T15:09:50.235Z,-3.80
2022-12-13T15:12:24.696Z,-3.80
2022-12-13T15:15:00.455Z,-3.90
2022-12-13T15:17:33.942Z,-4.00
2022-12-13T15:20:24.981Z,-4.00
2022-12-13T15:23:01.039Z,-4.10
2022-12-13T15:25:34.996Z,-4.10
2022-12-13T15:28:03.042Z,-4.10
2022-12-13T15:30:34.241Z,-4.20
2022-12-13T15:33:09.424Z,-4.20
2022-12-13T15:35:38.986Z,-4.20
2022-12-13T15:38:13.359Z,-4.20
2022-12-13T15:40:56.702Z,-4.20
2022-12-13T15:43:33.988Z,-4.20
2022-12-13T15:46:02.063Z,-4.20
2022-12-13T15:48:37.395Z,-4.20
2022-12-13T15:51:08.211Z,-4.20
2022-12-13T15:53:37.763Z,-4.30
2022-12-13T15:56:31.878Z,-4.20
2022-12-13T15:59:01.343Z,-4.20
2022-12-13T16:01:32.090Z,-4.20
2022-12-13T16:04:03.785Z,-4.20
2022-12-13T16:06:34.353Z,-4.20
2022-12-13T16:09:04.556Z,-4.10
2022-12-13T16:11:36.351Z,-4.20
2022-12-13T16:14:28.803Z,-4.20
2022-12-13T16:16:57.996Z,-4.10
2022-12-13T16:19:27.725Z,-4.00
2022-12-13T16:21:56.089Z,-4.00
2022-12-13T16:24:24.957Z,-3.90
2022-12-13T16:26:52.935Z,-3.90
2022-12-13T16:29:21.212Z,-3.90
2022-12-13T16:31:50.103Z,-3.90
2022-12-13T16:34:19.579Z,-3.90
2022-12-13T16:36:56.919Z,-3.90
2022-12-13T16:39:24.934Z,-3.90
2022-12-13T16:41:54.999Z,-3.80
2022-12-13T16:44:27.529Z,-3.80
2022-12-13T16:47:17.431Z,-3.90
2022-12-13T16:49:45.176Z,-3.80
2022-12-13T16:52:15.450Z,-3.80
2022-12-13T16:54:43.680Z,-3.80
2022-12-13T16:57:11.814Z,-3.90
2022-12-13T16:59:39.852Z,-3.80
2022-12-13T17:02:17.950Z,-3.80
2022-12-13T17:04:46.213Z,-3.80
2022-12-13T17:07:15.987Z,-3.80
2022-12-13T17:09:44.019Z,-3.90
2022-12-13T17:12:12.107Z,-3.90
2022-12-13T17:14:40.318Z,-4.00
2022-12-13T17:17:11.586Z,-3.90
2022-12-13T17:19:43.001Z,-3.90
2022-12-13T17:22:12.320Z,-3.90
2022-12-13T17:24:42.812Z,-3.90
2022-12-13T17:27:11.325Z,-3.90
2022-12-13T17:29:39.360Z,-3.90
2022-12-13T17:32:07.887Z,-3.90
2022-12-13T17:34:35.909Z,-3.90
2022-12-13T17:37:10.136Z,-3.90
2022-12-13T17:39:38.991Z,-4.00
2022-12-13T17:42:08.482Z,-4.00
2022-12-13T17:44:38.029Z,-4.00
2022-12-13T17:47:06.096Z,-4.00
2022-12-13T17:49:34.183Z,-3.90
2022-12-13T17:52:03.307Z,-4.00
2022-12-13T17:54:31.564Z,-4.00
2022-12-13T17:57:00.710Z,-3.90
2022-12-13T17:59:30.327Z,-3.90
2022-12-13T18:01:59.135Z,-3.90
2022-12-13T18:04:27.857Z,-3.90
2022-12-13T18:06:57.584Z,-4.00
2022-12-13T18:09:26.185Z,-3.90
2022-12-13T18:11:55.320Z,-3.90
2022-12-13T18:14:25.249Z,-3.90
2022-12-13T18:16:55.486Z,-4.00
2022-12-13T18:19:30.439Z,-4.00
2022-12-13T18:22:00.138Z,-3.90
2022-12-13T18:24:29.403Z,-3.90
2022-12-13T18:26:57.718Z,-3.90
2022-12-13T18:29:26.190Z,-4.00
2022-12-13T18:31:56.447Z,-4.00
2022-12-13T18:34:25.111Z,-3.90
2022-12-13T18:36:54.656Z,-4.00
2022-12-13T18:39:23.159Z,-4.00
2022-12-13T18:41:53.629Z,-3.90
2022-12-13T18:44:22.577Z,-3.90
2022-12-13T18:46:51.710Z,-3.90
2022-12-13T18:49:21.086Z,-3.90
2022-12-13T18:51:50.006Z,-3.90
2022-12-13T18:54:18.380Z,-3.90
2022-12-13T18:56:46.383Z,-4.00
2022-12-13T18:59:15.374Z,-4.00
2022-12-13T19:01:43.412Z,-4.00
2022-12-13T19:04:11.751Z,-4.00
2022-12-13T19:06:41.074Z,-3.90
2022-12-13T19:09:09.391Z,-4.00
2022-12-13T19:11:37.754Z,-4.00
2022-12-13T19:14:06.009Z,-3.90
2022-12-13T19:16:34.147Z,-3.90
2022-12-13T19:19:03.106Z,-4.00
2022-12-13T19:21:31.061Z,-4.00
2022-12-13T19:24:01.433Z,-3.90
2022-12-13T19:26:30.378Z,-4.00
2022-12-13T19:28:59.785Z,-4.00
2022-12-13T19:31:32.372Z,-4.00
2022-12-13T19:34:01.991Z,-3.90
2022-12-13T19:36:30.674Z,-4.00
2022-12-13T19:39:00.133Z,-4.00
2022-12-13T19:41:29.760Z,-3.90
2022-12-13T19:43:58.035Z,-3.90
2022-12-13T19:46:26.404Z,-3.90
2022-12-13T19:48:54.890Z,-3.90
2022-12-13T19:51:22.842Z,-3.90
2022-12-13T19:53:51.598Z,-4.00
2022-12-13T19:56:22.634Z,-3.90
2022-12-13T19:58:51.211Z,-3.90
2022-12-13T20:01:19.983Z,-3.90
2022-12-13T20:03:48.359Z,-4.00
2022-12-13T20:06:19.219Z,-3.90
2022-12-13T20:08:48.089Z,-3.90
2022-12-13T20:11:20.055Z,-3.90
2022-12-13T20:13:51.414Z,-4.00
2022-12-13T20:16:21.823Z,-4.00
2022-12-13T20:18:55.615Z,-3.90
2022-12-13T20:21:24.838Z,-3.90
2022-12-13T20:23:53.325Z,-3.90
2022-12-13T20:26:24.151Z,-4.00
2022-12-13T20:28:54.503Z,-4.00
2022-12-13T20:31:25.472Z,-4.00
2022-12-13T20:33:56.706Z,-3.90
2022-12-13T20:36:27.124Z,-4.00
2022-12-13T20:38:56.519Z,-3.90
2022-12-13T20:41:27.442Z,-3.90
2022-12-13T20:43:59.387Z,-3.90
2022-12-13T20:46:29.284Z,-3.90
2022-12-13T20:48:58.682Z,-3.90
2022-12-13T20:51:30.527Z,-3.90
2022-12-13T20:53:59.332Z,-3.90
2022-12-13T20:56:30.215Z,-4.00
2022-12-13T20:58:59.554Z,-3.90
2022-12-13T21:01:31.718Z,-3.90
2022-12-13T21:04:01.956Z,-4.00
2022-12-13T21:06:31.075Z,-4.00
2022-12-13T21:09:02.686Z,-4.00
2022-12-13T21:11:33.743Z,-4.00
2022-12-13T21:14:09.232Z,-4.00
2022-12-13T21:16:40.458Z,-4.00
2022-12-13T21:19:10.113Z,-4.00
2022-12-13T21:21:38.822Z,-3.90
2022-12-13T21:24:08.104Z,-4.00
2022-12-13T21:26:36.872Z,-4.00
2022-12-13T21:29:08.666Z,-4.00
2022-12-13T21:31:37.676Z,-4.00
2022-12-13T21:34:06.880Z,-4.00
2022-12-13T21:36:36.480Z,-4.00
2022-12-13T21:39:06.764Z,-4.00
2022-12-13T21:41:35.057Z,-4.00
2022-12-13T21:44:03.198Z,-4.10
2022-12-13T21:47:10.361Z,-4.00
2022-12-13T21:49:22.037Z,-4.00
2022-12-13T21:51:50.552Z,-4.00
2022-12-13T21:54:19.511Z,-4.00
2022-12-13T21:57:05.342Z,-4.00
2022-12-13T21:59:33.355Z,-4.00
2022-12-13T22:02:15.103Z,-4.00
2022-12-13T22:04:44.916Z,-4.00
2022-12-13T22:07:15.095Z,-3.90
2022-12-13T22:09:44.334Z,-4.00
2022-12-13T22:12:19.979Z,-4.00
2022-12-13T22:14:49.152Z,-4.10
2022-12-13T22:17:19.013Z,-4.10
2022-12-13T22:19:48.530Z,-4.10
2022-12-13T22:22:17.475Z,-4.00
2022-12-13T22:24:51.415Z,-4.10
2022-12-13T22:27:25.471Z,-4.10
2022-12-13T22:29:54.349Z,-4.00
2022-12-13T22:32:24.314Z,-4.00
2022-12-13T22:34:53.211Z,-4.00
2022-12-13T22:37:21.362Z,-4.00
2022-12-13T22:39:49.306Z,-4.00
2022-12-13T22:42:17.284Z,-4.10
2022-12-13T22:44:45.293Z,-4.10
2022-12-13T22:47:13.324Z,-4.00
2022-12-13T22:49:43.072Z,-4.00
2022-12-13T22:52:11.137Z,-4.00
2022-12-13T22:54:39.795Z,-4.00
2022-12-13T22:57:08.083Z,-4.00
2022-12-13T22:59:36.119Z,-4.10
2022-12-13T23:02:04.389Z,-4.00
2022-12-13T23:04:35.484Z,-4.00
2022-12-13T23:07:05.104Z,-4.00
2022-12-13T23:09:33.137Z,-4.10
2022-12-13T23:12:18.775Z,-4.10
2022-12-13T23:14:46.753Z,-4.00
2022-12-13T23:17:14.895Z,-4.00
2022-12-13T23:19:51.601Z,-4.10
2022-12-13T23:22:25.135Z,-4.10
2022-12-13T23:24:54.191Z,-4.00
2022-12-13T23:27:25.727Z,-4.10
2022-12-13T23:29:53.855Z,-4.00
2022-12-13T23:32:22.333Z,-4.00
2022-12-13T23:34:50.297Z,-4.10
2022-12-13T23:37:18.548Z,-4.00
2022-12-13T23:39:48.514Z,-4.00
2022-12-13T23:42:16.742Z,-4.00
2022-12-13T23:44:44.763Z,-4.10
2022-12-13T23:47:12.773Z,-4.10
2022-12-13T23:49:40.923Z,-4.10
2022-12-13T23:52:08.969Z,-4.30
2022-12-13T23:54:36.986Z,-4.20
2022-12-13T23:57:06.557Z,-4.20
2022-12-13T23:59:34.623Z,-4.10
